Terminal Aerodrome Forecast
Issued by NWS Sterling, VA

Current Version | Previous Version | Graphics & Text | Print | Product List | Glossary On
Versions: 1 2 3 4 5 6 7 8 9 10 11 12 13 14 15 16
000
FTUS41 KLWX 031732
TAFMRB
TAF
KMRB 031732Z 0318/0418 28009KT P6SM SCT060
     FM040300 VRB03KT P6SM FEW250
     FM041400 21004KT P6SM FEW050=

USA.gov is the U.S. government's official web portal to all federal, state and local government web resources and services.